메인 페이지
METAR-TAF:

METAR-TAF

공항 :

다윈 국제공항

다윈, 오스트레일리아

위도: 12-24S, 경도: 130-52E, 고도: 31m

현재 날씨관측

예보는 34분 전, 04:30시(UTC)에 발표되었습니다.
4kt
온도 33°C
습도 56%
기압 1010 hPa
시정 10km 이상
고도 3700ft 상공 구름 조금
고도 6500ft 상공 구름 보통
고도 37000ft 상공 구름 많음

METAR: YPDN 150430Z 17004KT 9999 FEW037 SCT065 BKN370 33/23 Q1010 NOSIG

시각: 14:34 (05:04 UTC)

예보

예보는 2 시간 4분 전, 03:00시(UTC)에 발표되었습니다.
예보 대상 시간: 15일 03시부터 16일 06시까지 (UTC)
북동6kt
시정 10km 이상
고도 3500ft 상공 구름 조금
15일 0400시부터 (UTC)
서북서10kt
시정 10km 이상
고도 5000ft 상공 구름 조금
15일 1400시부터 (UTC)
동북동5kt
시정 10km 이상
고도 2000ft 상공 구름 보통
16일 0400시부터 (UTC)
10kt
시정 10km 이상
고도 4000ft 상공 구름 조금
확률 30% :
일시적
15일 14시부터 15일 20시까지 (UTC)
여러 방향의 바람 20kt, 순간 최대 풍속 35kt
시정: 1000m
고도 1000ft 상공 구름 많음
고도 2000ft 상공 구름 보통, 적란운.
뇌우, 비

TAF: YPDN 150300Z 1503/1606 04006KT 9999 FEW035 FM150400 29010KT 9999 FEW050 FM151400 06005KT 9999 SCT020 FM160400 35010KT 9999 FEW040 PROB30 TEMPO 1514/1520 VRB20G35KT 1000 TSRA BKN010 SCT020CB

4,000개 이상의 공항 관측 자료 및 예보 (METAR 및 TAF 보고).

지도상에서 검색 가능한 기상관측소가 노란 점과 빨간 점으로 표시되어 있습니다.

기상관측소 명을 보려면 표시 위로 마우스를 이동하세요.

날씨 관측과 예보를 보려면 클릭하세요.

지도 변경 : 확대하려면 엑스 표시가 있는 녹색 버튼, 축소하려면 빼기 표시가 있는 녹색 버튼, 다음 페이지의 지도를 보려면 녹색 화살표를 클릭하세요.


METAR-TAF: